Time;durP1;ratioP1;P1;durP2;ratioP2;P2;SDS_P1;SDS_P2;PMS_P1;PMS_P2;Temp;Humidity;BMP_temperature;BMP_pressure;BME280_temperature;BME280_humidity;BME280_pressure;Samples;Min_cycle;Max_cycle;Signal;HPM_P1;HPM_P2
2022/05/02 00:02:19;;;;;;;;;;;7.60;99.90;;;;;;5054065;28;19917;-82
2022/05/02 00:04:44;;;;;;;;;;;7.60;99.90;;;;;;5043959;28;20283;-82
2022/05/02 00:07:09;;;;;;;;;;;7.50;99.90;;;;;;5054302;28;19913;-82
2022/05/02 00:09:35;;;;;;;;;;;7.50;99.90;;;;;;5041405;28;19927;-82
2022/05/02 00:12:00;;;;;;;;;;;7.50;99.90;;;;;;5037689;28;19913;-82
2022/05/02 00:14:26;;;;;;;;;;;7.50;99.90;;;;;;5038236;28;20290;-82
2022/05/02 00:16:52;;;;;;;;;;;7.40;99.90;;;;;;5050567;28;19920;-82
2022/05/02 00:19:17;;;;;;;;;;;7.50;99.90;;;;;;5047617;28;19928;-82
2022/05/02 00:21:43;;;;;;;;;;;7.50;99.90;;;;;;5054615;28;19908;-82
2022/05/02 00:24:09;;;;;;;;;;;7.50;99.90;;;;;;5049585;28;19962;-82
2022/05/02 00:26:35;;;;;;;;;;;7.50;99.90;;;;;;5042539;28;20015;-82
2022/05/02 00:29:00;;;;;;;;;;;7.50;99.90;;;;;;5057452;28;20196;-82
2022/05/02 00:31:26;;;;;;;;;;;7.50;99.90;;;;;;5040504;28;19921;-82
2022/05/02 00:33:51;;;;;;;;;;;7.50;99.90;;;;;;5044394;28;19982;-83
2022/05/02 00:36:17;;;;;;;;;;;7.50;99.90;;;;;;5054047;28;19916;-82
2022/05/02 00:38:43;;;;;;;;;;;7.50;99.90;;;;;;5064608;28;19920;-82
2022/05/02 00:41:09;;;;;;;;;;;7.50;99.90;;;;;;5054021;28;19912;-82
2022/05/02 00:43:34;;;;;;;;;;;7.50;99.90;;;;;;5041238;28;19927;-82
2022/05/02 00:46:00;;;;;;;;;;;7.50;99.90;;;;;;5037586;28;20026;-83
2022/05/02 00:48:25;;;;;;;;;;;7.40;99.90;;;;;;5064801;28;19912;-82
2022/05/02 00:50:51;;;;;;;;;;;7.40;99.90;;;;;;5041324;28;19916;-82
2022/05/02 00:53:22;;;;;;;;;;;7.30;99.90;;;;;;5068701;28;19916;-82
2022/05/02 00:55:48;;;;;;;;;;;7.20;99.90;;;;;;5057559;28;19920;-82
2022/05/02 00:58:14;;;;;;;;;;;7.10;99.90;;;;;;5059139;28;19912;-82
2022/05/02 01:00:41;;;;;;;;;;;7.10;99.90;;;;;;5038076;28;19917;-82
2022/05/02 01:03:07;;;;;;;;;;;7.00;99.90;;;;;;5040831;23;19928;-84
2022/05/02 01:05:36;;;;;;;;;;;7.00;99.90;;;;;;5047835;28;20266;-84
2022/05/02 01:08:02;;;;;;;;;;;7.00;99.90;;;;;;5052523;28;19976;-84
2022/05/02 01:10:29;;;;;;;;;;;7.00;99.90;;;;;;5036333;28;20297;-84
2022/05/02 01:12:54;;;;;;;;;;;6.90;99.90;;;;;;5044681;28;19959;-84
2022/05/02 01:15:20;;;;;;;;;;;6.90;99.90;;;;;;5044058;28;19917;-83
2022/05/02 01:17:45;;;;;;;;;;;6.90;99.90;;;;;;5014823;28;19924;-83
2022/05/02 01:20:11;;;;;;;;;;;6.80;99.90;;;;;;5047563;28;19979;-83
2022/05/02 01:22:37;;;;;;;;;;;6.80;99.90;;;;;;5032175;28;20012;-83
2022/05/02 01:25:02;;;;;;;;;;;6.70;99.90;;;;;;5030226;28;20027;-83
2022/05/02 01:27:28;;;;;;;;;;;6.70;99.90;;;;;;5030741;28;19920;-83
2022/05/02 01:29:53;;;;;;;;;;;6.70;99.90;;;;;;5047424;28;20008;-83
2022/05/02 01:32:19;;;;;;;;;;;6.60;99.90;;;;;;5063819;28;20588;-83
2022/05/02 01:34:44;;;;;;;;;;;6.60;99.90;;;;;;5031345;28;19920;-83
2022/05/02 01:37:11;;;;;;;;;;;6.60;99.90;;;;;;5036792;28;19924;-83
2022/05/02 01:39:36;;;;;;;;;;;6.60;99.90;;;;;;5014139;28;19921;-83
2022/05/02 01:42:03;;;;;;;;;;;6.50;99.90;;;;;;5032277;28;20035;-83
2022/05/02 01:44:29;;;;;;;;;;;6.50;99.90;;;;;;5030450;28;19959;-83
2022/05/02 01:46:54;;;;;;;;;;;6.40;99.90;;;;;;5032729;28;20104;-83
2022/05/02 01:49:20;;;;;;;;;;;6.40;99.90;;;;;;5051594;28;19909;-83
2022/05/02 01:51:46;;;;;;;;;;;6.30;99.90;;;;;;5045537;28;19913;-83
2022/05/02 01:54:11;;;;;;;;;;;6.30;99.90;;;;;;5041876;28;19913;-83
2022/05/02 01:56:37;;;;;;;;;;;6.30;99.90;;;;;;5050980;28;19909;-83
2022/05/02 01:59:03;;;;;;;;;;;6.30;99.90;;;;;;5042835;28;19960;-83
2022/05/02 02:01:29;;;;;;;;;;;6.30;99.90;;;;;;5045936;28;19923;-83
2022/05/02 02:03:54;;;;;;;;;;;6.30;99.90;;;;;;5026833;28;19925;-83
2022/05/02 02:06:21;;;;;;;;;;;6.30;99.90;;;;;;5011117;28;19956;-83
2022/05/02 02:08:47;;;;;;;;;;;6.40;99.90;;;;;;5011684;28;19918;-83
2022/05/02 02:11:14;;;;;;;;;;;6.40;99.90;;;;;;5010495;28;19940;-83
2022/05/02 02:13:40;;;;;;;;;;;6.40;99.90;;;;;;5009779;28;19924;-83
2022/05/02 02:16:13;;;;;;;;;;;6.40;99.90;;;;;;5009296;28;19917;-83
2022/05/02 02:18:40;;;;;;;;;;;6.40;99.90;;;;;;5027897;28;19916;-83
2022/05/02 02:21:06;;;;;;;;;;;6.40;99.90;;;;;;4992376;28;19925;-83
2022/05/02 02:23:32;;;;;;;;;;;6.40;99.90;;;;;;5023576;28;19932;-83
2022/05/02 02:25:58;;;;;;;;;;;6.40;99.90;;;;;;4995981;28;19922;-83
2022/05/02 02:28:23;;;;;;;;;;;6.50;99.90;;;;;;4993150;28;19926;-83
2022/05/02 02:30:49;;;;;;;;;;;6.50;99.90;;;;;;5011872;28;19960;-83
2022/05/02 02:33:14;;;;;;;;;;;6.50;99.90;;;;;;5022490;28;19949;-83
2022/05/02 02:35:40;;;;;;;;;;;6.50;99.90;;;;;;5026519;28;20354;-83
2022/05/02 02:38:05;;;;;;;;;;;6.50;99.90;;;;;;5010976;28;20340;-83
2022/05/02 02:40:31;;;;;;;;;;;6.50;99.90;;;;;;5010164;28;19953;-83
2022/05/02 02:42:56;;;;;;;;;;;6.60;99.90;;;;;;5031032;28;19918;-83
2022/05/02 02:45:22;;;;;;;;;;;6.60;99.90;;;;;;5006809;28;19914;-83
2022/05/02 02:47:47;;;;;;;;;;;6.60;99.90;;;;;;4998095;28;19972;-83
2022/05/02 02:50:13;;;;;;;;;;;6.60;99.90;;;;;;5026174;28;19918;-83
2022/05/02 02:52:38;;;;;;;;;;;6.60;99.90;;;;;;5015050;28;19976;-83
2022/05/02 02:55:04;;;;;;;;;;;6.60;99.90;;;;;;5010202;28;19921;-83
2022/05/02 02:57:30;;;;;;;;;;;6.60;99.90;;;;;;5009811;28;19988;-83
2022/05/02 02:59:56;;;;;;;;;;;6.50;99.90;;;;;;5010603;28;19920;-83
2022/05/02 03:02:21;;;;;;;;;;;6.50;99.90;;;;;;5015290;28;19963;-83
2022/05/02 03:07:31;;;;;;;;;;;6.40;99.90;;;;;;5029762;28;19924;-83
2022/05/02 03:09:57;;;;;;;;;;;6.30;99.90;;;;;;5030081;28;19913;-83
2022/05/02 03:12:22;;;;;;;;;;;6.40;99.90;;;;;;5029831;28;19936;-83
2022/05/02 03:14:48;;;;;;;;;;;6.30;99.90;;;;;;5062365;28;20270;-83
2022/05/02 03:17:13;;;;;;;;;;;6.30;99.90;;;;;;5012930;28;19921;-83
2022/05/02 03:19:39;;;;;;;;;;;6.20;99.90;;;;;;5029024;28;19917;-83
2022/05/02 03:22:05;;;;;;;;;;;6.10;99.90;;;;;;5034606;28;19970;-84
2022/05/02 03:24:30;;;;;;;;;;;6.10;99.90;;;;;;5040882;28;20397;-84
2022/05/02 03:26:56;;;;;;;;;;;6.00;99.90;;;;;;5048336;28;19920;-84
2022/05/02 03:29:21;;;;;;;;;;;6.00;99.90;;;;;;5043495;28;20369;-84
2022/05/02 03:31:47;;;;;;;;;;;6.00;99.90;;;;;;5030778;28;19992;-84
2022/05/02 03:34:12;;;;;;;;;;;6.00;99.90;;;;;;5014869;28;19941;-84
2022/05/02 03:36:38;;;;;;;;;;;6.00;99.90;;;;;;5033011;28;19967;-84
2022/05/02 03:39:04;;;;;;;;;;;6.00;99.90;;;;;;5046961;28;20293;-84
2022/05/02 03:41:30;;;;;;;;;;;6.00;99.90;;;;;;5064241;28;19960;-84
2022/05/02 03:43:55;;;;;;;;;;;5.90;99.90;;;;;;5031528;28;19959;-84
2022/05/02 03:46:21;;;;;;;;;;;5.90;99.90;;;;;;5024595;28;19921;-84
2022/05/02 03:48:46;;;;;;;;;;;6.00;99.90;;;;;;5031167;28;20421;-84
2022/05/02 03:51:12;;;;;;;;;;;6.00;99.90;;;;;;5016817;28;19917;-84
2022/05/02 03:53:37;;;;;;;;;;;6.00;99.90;;;;;;4995304;28;20390;-84
2022/05/02 03:56:03;;;;;;;;;;;6.00;99.90;;;;;;5025137;28;19921;-84
2022/05/02 03:58:28;;;;;;;;;;;6.00;99.90;;;;;;5056266;28;19925;-84
2022/05/02 04:00:54;;;;;;;;;;;6.00;99.90;;;;;;5031450;28;20258;-84
2022/05/02 04:03:19;;;;;;;;;;;5.90;99.90;;;;;;5049144;28;19921;-84
2022/05/02 04:05:45;;;;;;;;;;;6.00;99.90;;;;;;5047457;28;19917;-84
2022/05/02 04:08:11;;;;;;;;;;;6.00;99.90;;;;;;5048709;28;19920;-84
2022/05/02 04:10:36;;;;;;;;;;;6.00;99.90;;;;;;5047974;28;19921;-84
2022/05/02 04:13:02;;;;;;;;;;;6.00;99.90;;;;;;5016186;28;20381;-84
2022/05/02 04:15:27;;;;;;;;;;;6.00;99.90;;;;;;5049142;28;19909;-84
2022/05/02 04:17:55;;;;;;;;;;;6.00;99.90;;;;;;5049234;28;20332;-84
2022/05/02 04:20:21;;;;;;;;;;;6.10;99.90;;;;;;5032986;28;20385;-84
2022/05/02 04:22:47;;;;;;;;;;;6.00;99.90;;;;;;5037086;28;19917;-83
2022/05/02 04:25:12;;;;;;;;;;;6.10;99.90;;;;;;5038402;28;20398;-83
2022/05/02 04:27:38;;;;;;;;;;;6.10;99.90;;;;;;5016169;28;19917;-83
2022/05/02 04:30:04;;;;;;;;;;;6.10;99.90;;;;;;5033040;28;19920;-83
2022/05/02 04:32:30;;;;;;;;;;;6.10;99.90;;;;;;5032248;28;20007;-83
2022/05/02 04:34:58;;;;;;;;;;;6.20;99.90;;;;;;5032559;28;19913;-83
2022/05/02 04:37:24;;;;;;;;;;;6.20;99.90;;;;;;5046979;28;19925;-83
2022/05/02 04:39:49;;;;;;;;;;;6.20;99.90;;;;;;5032928;28;19910;-83
2022/05/02 04:42:15;;;;;;;;;;;6.30;99.90;;;;;;5031702;28;19921;-83
2022/05/02 04:44:40;;;;;;;;;;;6.30;99.90;;;;;;5032205;28;20008;-83
2022/05/02 04:47:06;;;;;;;;;;;6.30;99.90;;;;;;5015276;28;19917;-83
2022/05/02 04:49:32;;;;;;;;;;;6.30;99.90;;;;;;5048170;28;19917;-83
2022/05/02 04:51:57;;;;;;;;;;;6.40;99.90;;;;;;5040274;28;19952;-84
2022/05/02 04:54:23;;;;;;;;;;;6.40;99.90;;;;;;5033051;28;19925;-83
2022/05/02 04:56:48;;;;;;;;;;;6.50;99.90;;;;;;5033373;28;19941;-84
2022/05/02 04:59:14;;;;;;;;;;;6.60;99.90;;;;;;5034770;28;19921;-83
2022/05/02 05:01:39;;;;;;;;;;;6.70;99.90;;;;;;5032451;28;19928;-83
2022/05/02 05:04:05;;;;;;;;;;;6.70;99.90;;;;;;5051430;28;19925;-83
2022/05/02 05:06:30;;;;;;;;;;;6.80;99.90;;;;;;5043418;28;19928;-83
2022/05/02 05:08:56;;;;;;;;;;;6.90;99.90;;;;;;5050740;28;19917;-83
2022/05/02 05:11:31;;;;;;;;;;;6.90;99.90;;;;;;5034934;28;19920;-83
2022/05/02 05:17:12;;;;;;;;;;;7.00;99.90;;;;;;5053124;28;19924;-83
2022/05/02 05:19:40;;;;;;;;;;;7.10;99.90;;;;;;5051968;28;20503;-84
2022/05/02 05:22:15;;;;;;;;;;;7.10;99.90;;;;;;5034430;28;19925;-83
2022/05/02 05:24:40;;;;;;;;;;;7.10;99.90;;;;;;5034055;28;19967;-83
2022/05/02 05:27:12;;;;;;;;;;;7.20;99.90;;;;;;5034836;28;19952;-83
2022/05/02 05:29:51;;;;;;;;;;;7.30;99.90;;;;;;5051546;28;19924;-83
2022/05/02 05:32:23;;;;;;;;;;;7.40;99.90;;;;;;5052559;28;20312;-83
2022/05/02 05:34:51;;;;;;;;;;;7.50;99.90;;;;;;5051793;28;19919;-83
2022/05/02 05:37:26;;;;;;;;;;;7.60;99.90;;;;;;5031179;28;19917;-83
2022/05/02 05:39:51;;;;;;;;;;;7.70;99.90;;;;;;5032249;28;20127;-83
2022/05/02 05:42:21;;;;;;;;;;;7.80;99.90;;;;;;5033860;28;20012;-84
2022/05/02 05:44:53;;;;;;;;;;;7.90;99.90;;;;;;5033377;28;19920;-83
2022/05/02 05:47:34;;;;;;;;;;;8.00;99.90;;;;;;5052190;28;19998;-83
2022/05/02 05:50:18;;;;;;;;;;;8.00;99.90;;;;;;5033799;28;19909;-84
2022/05/02 05:52:47;;;;;;;;;;;8.10;99.90;;;;;;5033375;28;19951;-83
2022/05/02 05:55:16;;;;;;;;;;;8.10;99.90;;;;;;5033913;28;19913;-83
2022/05/02 05:57:41;;;;;;;;;;;8.20;99.90;;;;;;5034011;28;19913;-83
2022/05/02 06:00:14;;;;;;;;;;;8.30;99.90;;;;;;5033847;28;20408;-84
2022/05/02 06:02:54;;;;;;;;;;;8.40;99.90;;;;;;5017543;28;19943;-84
2022/05/02 06:05:20;;;;;;;;;;;8.60;99.90;;;;;;5034777;28;20354;-84
2022/05/02 06:07:46;;;;;;;;;;;8.70;99.90;;;;;;5034724;28;19923;-84
2022/05/02 06:10:14;;;;;;;;;;;8.90;99.90;;;;;;5052616;28;19913;-84
2022/05/02 06:12:39;;;;;;;;;;;9.00;99.90;;;;;;5018506;28;20002;-84
2022/05/02 06:20:38;;;;;;;;;;;9.30;99.90;;;;;;5053439;28;19943;-83
2022/05/02 06:23:07;;;;;;;;;;;9.40;99.90;;;;;;5018945;28;20007;-84
2022/05/02 06:25:33;;;;;;;;;;;9.50;99.90;;;;;;5047521;28;19916;-84
2022/05/02 06:28:01;;;;;;;;;;;9.50;99.90;;;;;;5035338;28;20285;-84
2022/05/02 06:30:28;;;;;;;;;;;9.60;99.90;;;;;;5051475;28;19913;-84
2022/05/02 06:32:54;;;;;;;;;;;9.70;99.90;;;;;;5052825;28;19971;-83
2022/05/02 06:35:20;;;;;;;;;;;9.80;99.90;;;;;;5053563;28;19915;-85
2022/05/02 06:37:45;;;;;;;;;;;9.90;99.90;;;;;;5035236;28;19916;-84
2022/05/02 06:40:17;;;;;;;;;;;10.00;99.90;;;;;;5034880;28;19917;-84
2022/05/02 06:43:21;;;;;;;;;;;10.00;99.90;;;;;;5036321;28;19913;-84
2022/05/02 06:46:06;;;;;;;;;;;10.10;99.90;;;;;;4991654;28;19925;-84
2022/05/02 06:48:36;;;;;;;;;;;10.20;99.90;;;;;;4983200;28;20391;-83
2022/05/02 06:51:01;;;;;;;;;;;10.30;99.90;;;;;;5007789;28;19921;-85
2022/05/02 06:53:30;;;;;;;;;;;10.40;99.90;;;;;;5036492;28;19909;-84
2022/05/02 06:56:09;;;;;;;;;;;10.40;99.90;;;;;;5036870;28;19956;-84
2022/05/02 06:58:37;;;;;;;;;;;10.60;99.90;;;;;;5052572;28;20011;-84
2022/05/02 07:01:20;;;;;;;;;;;10.70;99.90;;;;;;5036925;28;19909;-84
2022/05/02 07:04:06;;;;;;;;;;;10.70;99.90;;;;;;5091246;23;19923;-85
2022/05/02 07:06:43;;;;;;;;;;;10.90;99.90;;;;;;5097186;28;19908;-85
2022/05/02 07:09:10;;;;;;;;;;;11.10;99.90;;;;;;5123207;28;19966;-85
2022/05/02 07:11:51;;;;;;;;;;;11.30;99.90;;;;;;5088756;28;19983;-85
2022/05/02 07:14:20;;;;;;;;;;;11.40;99.90;;;;;;5138734;27;19917;-86
2022/05/02 07:16:49;;;;;;;;;;;11.60;99.90;;;;;;5110507;28;20037;-86
2022/05/02 07:19:20;;;;;;;;;;;11.80;99.90;;;;;;5111900;28;19915;-86
2022/05/02 07:21:49;;;;;;;;;;;12.00;99.90;;;;;;5111584;28;20021;-86
2022/05/02 07:24:25;;;;;;;;;;;12.20;99.90;;;;;;5112138;28;19919;-85
2022/05/02 07:27:14;;;;;;;;;;;12.40;99.90;;;;;;5129634;28;19929;-85
2022/05/02 07:29:42;;;;;;;;;;;12.50;99.90;;;;;;5116052;28;19912;-86
2022/05/02 07:32:09;;;;;;;;;;;12.60;99.90;;;;;;5128624;28;19977;-86
2022/05/02 07:34:36;;;;;;;;;;;12.70;99.90;;;;;;5128339;28;19914;-86
2022/05/02 07:37:02;;;;;;;;;;;12.80;99.90;;;;;;5110149;28;20326;-85
2022/05/02 07:39:28;;;;;;;;;;;12.90;99.90;;;;;;5131074;28;19936;-85
2022/05/02 07:41:54;;;;;;;;;;;13.00;99.90;;;;;;5131117;28;19916;-85
2022/05/02 07:44:23;;;;;;;;;;;13.10;99.90;;;;;;5111798;28;19916;-85
2022/05/02 07:46:50;;;;;;;;;;;13.20;99.90;;;;;;5129507;28;19908;-85
2022/05/02 07:49:21;;;;;;;;;;;13.30;99.90;;;;;;5130616;28;19929;-85
2022/05/02 07:51:50;;;;;;;;;;;13.50;99.90;;;;;;5130092;28;19902;-85
2022/05/02 07:54:18;;;;;;;;;;;13.70;99.90;;;;;;5130999;28;19984;-86
2022/05/02 07:56:45;;;;;;;;;;;13.80;99.90;;;;;;5132552;28;19908;-85
2022/05/02 07:59:12;;;;;;;;;;;14.00;99.90;;;;;;5134452;28;19922;-86
2022/05/02 08:01:38;;;;;;;;;;;14.20;99.90;;;;;;5131763;28;19915;-85
2022/05/02 08:04:04;;;;;;;;;;;14.40;99.90;;;;;;5130274;28;19923;-86
2022/05/02 08:06:44;;;;;;;;;;;14.60;99.90;;;;;;5113895;28;19916;-85
2022/05/02 08:09:09;;;;;;;;;;;14.80;99.90;;;;;;5134037;28;20288;-85
2022/05/02 08:11:38;;;;;;;;;;;14.90;99.90;;;;;;5115733;28;19911;-85
2022/05/02 08:14:15;;;;;;;;;;;15.10;99.90;;;;;;5131046;28;19908;-85
2022/05/02 08:16:52;;;;;;;;;;;15.20;99.90;;;;;;5130562;28;19912;-85
2022/05/02 08:19:17;;;;;;;;;;;15.20;99.90;;;;;;5114201;28;19912;-85
2022/05/02 08:21:50;;;;;;;;;;;15.20;99.90;;;;;;5132547;28;19919;-85
2022/05/02 08:27:48;;;;;;;;;;;15.20;99.90;;;;;;5050474;28;19958;-85
2022/05/02 08:30:20;;;;;;;;;;;15.40;99.90;;;;;;5049678;28;20119;-85
2022/05/02 08:32:59;;;;;;;;;;;15.60;99.90;;;;;;5105459;28;19930;-85
2022/05/02 08:35:40;;;;;;;;;;;15.60;99.90;;;;;;5133805;28;19907;-84
2022/05/02 08:38:26;;;;;;;;;;;15.70;99.90;;;;;;5132710;28;19915;-85
2022/05/02 08:40:52;;;;;;;;;;;15.70;99.90;;;;;;5132739;28;19907;-85
2022/05/02 08:43:23;;;;;;;;;;;15.80;99.90;;;;;;5134166;28;19919;-85
2022/05/02 08:45:49;;;;;;;;;;;15.80;97.70;;;;;;5133679;28;20270;-85
2022/05/02 08:48:20;;;;;;;;;;;15.90;97.40;;;;;;5137186;28;19908;-85
2022/05/02 08:50:49;;;;;;;;;;;16.00;98.30;;;;;;5135758;28;19929;-86
2022/05/02 08:53:17;;;;;;;;;;;16.20;98.60;;;;;;5116161;28;19918;-85
2022/05/02 08:55:55;;;;;;;;;;;16.30;94.20;;;;;;5136516;28;19911;-86
2022/05/02 08:58:24;;;;;;;;;;;16.40;94.60;;;;;;5135837;28;19911;-85
2022/05/02 09:01:03;;;;;;;;;;;16.50;95.10;;;;;;5133500;28;19913;-85
2022/05/02 09:03:29;;;;;;;;;;;16.70;95.80;;;;;;5117445;28;19919;-85
2022/05/02 09:06:21;;;;;;;;;;;16.70;90.50;;;;;;5119030;28;20002;-85
2022/05/02 09:09:03;;;;;;;;;;;16.60;88.50;;;;;;5090293;28;19897;-85
2022/05/02 09:11:48;;;;;;;;;;;16.70;90.60;;;;;;5130833;28;19916;-85
2022/05/02 09:14:29;;;;;;;;;;;16.60;80.60;;;;;;5114700;28;20369;-85
2022/05/02 09:17:01;;;;;;;;;;;16.60;83.20;;;;;;5097226;28;19896;-85
2022/05/02 09:19:32;;;;;;;;;;;16.80;91.60;;;;;;5132287;28;19908;-85
2022/05/02 09:22:04;;;;;;;;;;;16.80;89.80;;;;;;5134992;28;19908;-85
2022/05/02 09:24:35;;;;;;;;;;;16.90;90.40;;;;;;5115926;28;19916;-85
2022/05/02 09:27:21;;;;;;;;;;;17.00;90.60;;;;;;5130747;28;20355;-86
2022/05/02 09:30:16;;;;;;;;;;;17.00;82.90;;;;;;5132738;28;19915;-85
2022/05/02 09:32:59;;;;;;;;;;;16.70;78.40;;;;;;5109073;28;19907;-85
2022/05/02 09:35:28;;;;;;;;;;;16.70;84.30;;;;;;5130776;28;19919;-85
2022/05/02 09:37:55;;;;;;;;;;;16.70;79.60;;;;;;5131161;28;19907;-85
2022/05/02 09:40:27;;;;;;;;;;;16.80;87.10;;;;;;5129467;28;19951;-85
2022/05/02 09:42:52;;;;;;;;;;;16.90;84.30;;;;;;5129778;28;19912;-85
2022/05/02 09:51:27;;;;;;;;;;;17.20;79.70;;;;;;5132896;28;19919;-85
2022/05/02 09:54:01;;;;;;;;;;;17.30;79.30;;;;;;5134861;28;19919;-85
2022/05/02 09:56:43;;;;;;;;;;;17.40;80.90;;;;;;5130338;28;19908;-85
2022/05/02 09:59:09;;;;;;;;;;;17.50;82.40;;;;;;5129375;28;19908;-86
2022/05/02 10:01:40;;;;;;;;;;;17.50;68.00;;;;;;5131456;28;19908;-85
2022/05/02 10:04:26;;;;;;;;;;;17.50;76.00;;;;;;5111872;28;19962;-85
2022/05/02 10:06:53;;;;;;;;;;;17.50;76.10;;;;;;5113007;28;19951;-85
2022/05/02 10:09:37;;;;;;;;;;;17.60;73.80;;;;;;5113779;28;19937;-85
2022/05/02 10:12:07;;;;;;;;;;;17.80;78.60;;;;;;5127641;28;19959;-85
2022/05/02 10:14:51;;;;;;;;;;;18.00;67.10;;;;;;5131163;28;19908;-85
2022/05/02 10:17:23;;;;;;;;;;;18.00;72.80;;;;;;5127811;28;19955;-85
2022/05/02 10:19:52;;;;;;;;;;;17.80;60.70;;;;;;5110838;28;20265;-85
2022/05/02 10:22:36;;;;;;;;;;;17.70;63.50;;;;;;5133096;28;19919;-85
2022/05/02 10:25:04;;;;;;;;;;;17.60;66.90;;;;;;5132408;28;20382;-85
2022/05/02 10:27:47;;;;;;;;;;;17.60;70.20;;;;;;5108787;28;19912;-85
2022/05/02 10:30:13;;;;;;;;;;;17.60;63.80;;;;;;5128913;28;19907;-85
2022/05/02 10:32:44;;;;;;;;;;;17.50;61.00;;;;;;5132945;28;19907;-85
2022/05/02 10:35:14;;;;;;;;;;;17.70;63.90;;;;;;5134135;28;19916;-85
2022/05/02 10:37:40;;;;;;;;;;;18.10;61.60;;;;;;5113681;28;19955;-85
2022/05/02 10:40:10;;;;;;;;;;;18.60;60.00;;;;;;5131761;28;19908;-85
2022/05/02 10:42:41;;;;;;;;;;;19.00;59.30;;;;;;5131673;28;19927;-85
2022/05/02 10:45:08;;;;;;;;;;;19.40;57.20;;;;;;5115312;28;19911;-85
2022/05/02 10:47:50;;;;;;;;;;;19.60;55.60;;;;;;5133533;28;19933;-85
2022/05/02 10:50:30;;;;;;;;;;;19.70;54.10;;;;;;5134625;28;19942;-85
2022/05/02 10:53:15;;;;;;;;;;;19.90;55.30;;;;;;5115651;28;19939;-86
2022/05/02 10:55:54;;;;;;;;;;;19.90;53.80;;;;;;5133227;28;19907;-85
2022/05/02 10:58:20;;;;;;;;;;;19.90;55.90;;;;;;5132394;28;19907;-86
2022/05/02 11:01:06;;;;;;;;;;;20.10;53.80;;;;;;5134263;28;19907;-85
2022/05/02 11:03:50;;;;;;;;;;;20.30;52.80;;;;;;5082240;28;19916;-86
2022/05/02 11:06:34;;;;;;;;;;;20.50;50.00;;;;;;5133628;28;19911;-85
2022/05/02 11:09:03;;;;;;;;;;;20.70;50.30;;;;;;5133608;28;19919;-86
2022/05/02 11:11:28;;;;;;;;;;;20.80;54.30;;;;;;5114646;28;19911;-86
2022/05/02 11:14:17;;;;;;;;;;;20.90;49.60;;;;;;5115962;28;19907;-85
2022/05/02 11:16:42;;;;;;;;;;;21.00;49.70;;;;;;5130617;28;19899;-86
2022/05/02 11:22:16;;;;;;;;;;;21.40;52.30;;;;;;5134950;28;19922;-86
2022/05/02 11:24:42;;;;;;;;;;;21.10;50.10;;;;;;5115414;28;19908;-85
2022/05/02 11:27:21;;;;;;;;;;;20.90;49.00;;;;;;5134733;28;19935;-86
2022/05/02 11:30:06;;;;;;;;;;;20.70;49.50;;;;;;5135836;28;19907;-86
2022/05/02 11:32:57;;;;;;;;;;;20.70;49.00;;;;;;5134653;28;19900;-86
2022/05/02 11:35:28;;;;;;;;;;;20.80;48.30;;;;;;5129220;28;19899;-86
2022/05/02 11:37:55;;;;;;;;;;;20.70;48.90;;;;;;5117065;28;19892;-86
2022/05/02 11:40:41;;;;;;;;;;;20.50;47.20;;;;;;5131952;28;19944;-86
2022/05/02 11:43:08;;;;;;;;;;;20.00;46.80;;;;;;5062632;28;19919;-86
2022/05/02 11:45:43;;;;;;;;;;;19.80;46.00;;;;;;5133298;28;19927;-86
2022/05/02 11:48:21;;;;;;;;;;;19.80;51.50;;;;;;5116034;28;19922;-86
2022/05/02 11:50:47;;;;;;;;;;;19.80;49.00;;;;;;5134049;28;19907;-86
2022/05/02 11:53:14;;;;;;;;;;;19.70;51.10;;;;;;5134060;28;19923;-85
2022/05/02 11:55:41;;;;;;;;;;;19.70;52.50;;;;;;5131042;28;19904;-86
2022/05/02 11:58:12;;;;;;;;;;;19.50;49.20;;;;;;5134079;28;19933;-86
2022/05/02 12:00:41;;;;;;;;;;;19.30;48.40;;;;;;5113974;28;19908;-86
2022/05/02 12:03:18;;;;;;;;;;;19.30;51.50;;;;;;5114184;28;19923;-86
2022/05/02 12:05:49;;;;;;;;;;;19.50;50.30;;;;;;5133791;28;19908;-86
2022/05/02 12:08:34;;;;;;;;;;;19.70;52.20;;;;;;5133897;28;19968;-86
2022/05/02 12:11:04;;;;;;;;;;;19.70;50.70;;;;;;5131671;28;19908;-86
2022/05/02 12:13:34;;;;;;;;;;;19.80;51.20;;;;;;5114665;28;20136;-86
2022/05/02 12:16:01;;;;;;;;;;;19.90;51.50;;;;;;5115429;28;20354;-86
2022/05/02 12:18:38;;;;;;;;;;;20.00;51.60;;;;;;5115631;28;19935;-86
2022/05/02 12:21:05;;;;;;;;;;;20.10;50.10;;;;;;5115738;28;19892;-86
2022/05/02 12:23:33;;;;;;;;;;;20.20;49.40;;;;;;5132448;28;19916;-86
2022/05/02 12:26:01;;;;;;;;;;;20.20;48.90;;;;;;5115479;28;19912;-86
2022/05/02 12:28:41;;;;;;;;;;;20.20;49.60;;;;;;5114908;28;19896;-86
2022/05/02 12:31:09;;;;;;;;;;;20.20;52.00;;;;;;5132803;28;20260;-86
2022/05/02 12:33:39;;;;;;;;;;;20.20;51.60;;;;;;5115313;28;19912;-86
2022/05/02 12:36:10;;;;;;;;;;;20.20;49.50;;;;;;5111802;28;19918;-85
2022/05/02 12:38:39;;;;;;;;;;;20.30;48.10;;;;;;5115718;28;19958;-86
2022/05/02 12:41:05;;;;;;;;;;;20.30;50.40;;;;;;5132418;28;19915;-86
2022/05/02 12:43:50;;;;;;;;;;;20.30;49.40;;;;;;5115162;28;19924;-86
2022/05/02 12:46:17;;;;;;;;;;;20.40;48.00;;;;;;5119447;28;19919;-86
2022/05/02 12:48:51;;;;;;;;;;;20.50;50.40;;;;;;5137319;28;19908;-85
2022/05/02 12:51:16;;;;;;;;;;;20.30;50.90;;;;;;5135960;28;19919;-86
2022/05/02 12:56:26;;;;;;;;;;;20.50;50.60;;;;;;5135427;28;19933;-86
2022/05/02 13:01:44;;;;;;;;;;;20.60;51.10;;;;;;5134055;28;19914;-86
2022/05/02 13:04:20;;;;;;;;;;;20.60;48.70;;;;;;5111694;22;20019;-84
2022/05/02 13:06:46;;;;;;;;;;;20.40;48.70;;;;;;5060588;28;19962;-85
2022/05/02 13:09:16;;;;;;;;;;;20.20;51.70;;;;;;5059508;28;19952;-85
2022/05/02 13:11:46;;;;;;;;;;;20.20;47.30;;;;;;5076653;28;19916;-85
2022/05/02 13:14:22;;;;;;;;;;;20.00;47.10;;;;;;5078312;28;19936;-84
2022/05/02 13:16:47;;;;;;;;;;;19.80;49.30;;;;;;5060200;28;20004;-85
2022/05/02 13:19:13;;;;;;;;;;;19.90;51.20;;;;;;5078140;28;19986;-85
2022/05/02 13:21:39;;;;;;;;;;;20.00;50.70;;;;;;5077721;28;19908;-85
2022/05/02 13:24:10;;;;;;;;;;;19.70;49.80;;;;;;5077252;28;20420;-84
2022/05/02 13:26:43;;;;;;;;;;;19.30;51.50;;;;;;5078928;28;19908;-85
2022/05/02 13:29:29;;;;;;;;;;;18.90;51.80;;;;;;5077241;28;19966;-85
2022/05/02 13:32:06;;;;;;;;;;;18.50;55.40;;;;;;5077732;28;19961;-85
2022/05/02 13:34:34;;;;;;;;;;;18.20;53.00;;;;;;5061310;28;19923;-85
2022/05/02 13:37:03;;;;;;;;;;;18.10;56.00;;;;;;5077704;28;19923;-85
2022/05/02 13:39:47;;;;;;;;;;;18.20;55.30;;;;;;5077414;28;20002;-85
2022/05/02 13:42:16;;;;;;;;;;;18.40;55.50;;;;;;5079346;28;19913;-85
2022/05/02 13:44:46;;;;;;;;;;;18.50;52.90;;;;;;5087003;28;19917;-85
2022/05/02 13:47:13;;;;;;;;;;;18.70;52.90;;;;;;5093768;28;19908;-84
2022/05/02 13:49:57;;;;;;;;;;;18.90;53.30;;;;;;5092726;28;19908;-84
2022/05/02 13:52:35;;;;;;;;;;;19.20;54.10;;;;;;5077265;28;19909;-85
2022/05/02 13:55:05;;;;;;;;;;;19.30;53.20;;;;;;5075688;28;19919;-85
2022/05/02 13:57:44;;;;;;;;;;;19.50;51.60;;;;;;5078559;28;19962;-85
2022/05/02 14:03:02;;;;;;;;;;;19.80;53.00;;;;;;5042023;28;19944;-85
2022/05/02 14:05:46;;;;;;;;;;;19.60;53.20;;;;;;5091411;28;19916;-85
2022/05/02 14:08:12;;;;;;;;;;;19.50;52.80;;;;;;5068885;28;20407;-84
2022/05/02 14:10:51;;;;;;;;;;;19.20;54.10;;;;;;5058731;28;19912;-85
2022/05/02 14:13:16;;;;;;;;;;;19.20;52.40;;;;;;5075590;28;20288;-84
2022/05/02 14:15:44;;;;;;;;;;;19.20;54.00;;;;;;5054987;28;20040;-84
2022/05/02 14:18:13;;;;;;;;;;;19.10;52.80;;;;;;5079883;28;19920;-85
2022/05/02 14:20:40;;;;;;;;;;;19.10;51.90;;;;;;5078667;28;19909;-85
2022/05/02 14:23:07;;;;;;;;;;;19.30;51.30;;;;;;5076525;28;20402;-84
2022/05/02 14:25:34;;;;;;;;;;;19.60;51.00;;;;;;5076332;28;19924;-85
2022/05/02 14:28:00;;;;;;;;;;;19.90;52.20;;;;;;5076067;28;19916;-84
2022/05/02 14:30:26;;;;;;;;;;;20.00;50.90;;;;;;5092087;28;19908;-84
2022/05/02 14:32:51;;;;;;;;;;;19.90;49.40;;;;;;5070251;28;20019;-84
2022/05/02 14:35:27;;;;;;;;;;;19.70;50.10;;;;;;5053249;28;19917;-84
2022/05/02 14:37:54;;;;;;;;;;;19.50;50.70;;;;;;5053608;28;20011;-84
2022/05/02 14:40:20;;;;;;;;;;;19.20;50.80;;;;;;5071295;28;19916;-84
2022/05/02 14:42:45;;;;;;;;;;;19.10;52.70;;;;;;5070100;28;19913;-84
2022/05/02 14:45:11;;;;;;;;;;;19.20;52.00;;;;;;5070138;28;19928;-84
2022/05/02 14:47:37;;;;;;;;;;;19.50;52.20;;;;;;5053258;28;19935;-84
2022/05/02 14:50:03;;;;;;;;;;;19.70;50.00;;;;;;5082083;28;19922;-84
2022/05/02 14:52:34;;;;;;;;;;;19.90;50.10;;;;;;5090165;28;20420;-84
2022/05/02 14:55:02;;;;;;;;;;;20.10;49.20;;;;;;5090630;28;19916;-84
2022/05/02 14:57:29;;;;;;;;;;;20.40;49.40;;;;;;5088690;28;19920;-84
2022/05/02 14:59:56;;;;;;;;;;;20.60;48.90;;;;;;5087011;28;19919;-84
2022/05/02 15:02:23;;;;;;;;;;;20.80;47.30;;;;;;5073555;28;20521;-88
2022/05/02 15:04:52;;;;;;;;;;;21.10;46.80;;;;;;5083744;28;19931;-88
2022/05/02 15:07:18;;;;;;;;;;;21.30;50.30;;;;;;5069392;28;19912;-87
2022/05/02 15:12:56;;;;;;;;;;;21.20;46.50;;;;;;5071084;28;19917;-90
2022/05/02 15:15:37;;;;;;;;;;;20.80;46.90;;;;;;5069383;28;19940;-88